Login

alex.fenix
2 activity; - Last training unit 10/02/2015
10/02/2015 Show to everybody 02/10/2015 Genoa, Liguria, Italy 7.59 345 00:50:07 9.08 Km\h
09/02/2015 Show to everybody 02/09/2015 Genoa, Liguria, Italy 22.54 847 02:24:03 9.39 Km\h
08/02/2015 Show to everybody 02/08/2015 Genoa, Liguria, Italy 7.68 352 00:48:43 9.46 Km\h
02/02/2015 Show to everybody 02/02/2015 Genoa, Liguria, Italy 7.88 352 00:57:00 8.3 Km\h
01/02/2015 Show to everybody 02/01/2015 Genoa, Liguria, Italy 9.17 340 00:58:28 9.41 Km\h
31/01/2015 Show to everybody 01/31/2015 Varazze, Liguria, Italy 16.36 385 01:27:44 11.19 Km\h Trailfox
28/01/2015 Show to everybody 01/28/2015 Genoa, Liguria, Italy 51.4 443 02:17:42 22.4 Km\h Pina
25/01/2015 Show to everybody 01/25/2015 Genoa, Liguria, Italy 7.72 355 00:47:07 9.83 Km\h Trailfox
24/01/2015 Show to everybody 01/24/2015 Genoa, Liguria, Italy 11.41 486 01:15:41 9.05 Km\h Trailfox
04/05/2013 Show to everybody melogno calice 22.39 935 03:05:27 7.25 Km\h
25/04/2013 Show to everybody Allenamento n. 5 32.17 751 01:35:34 20.2 Km\h
21/04/2013 Show to everybody finale ligure base nato 8.26 404 01:06:06 7.5 Km\h
31/01/2013 Show to everybody Allenamento n. 2 16.3 660 01:26:00 11.37 Km\h
04/07/2012 Show to everybody 20120704_0514 29.48 866 01:48:10 16.35 Km\h
02/07/2012 Show to everybody 20120702_0636 12.26 352 01:02:22 11.79 Km\h
27/06/2012 Show to everybody 20120627_0831 28.87 699 02:13:47 12.95 Km\h
25/06/2012 Show to everybody 20120625_0616 57.9 1383 04:13:12 13.72 Km\h
24/06/2012 Show to everybody 20120624_0628 61.43 1569 03:54:04 15.75 Km\h
23/06/2012 Show to everybody 20120623_0919 42.04 889 02:27:48 17.07 Km\h
21/06/2012 Show to everybody 20120621_1001 33.23 1040 02:49:29 11.77 Km\h
19/06/2012 Show to everybody 20120619_0913 32.39 710 02:08:20 15.15 Km\h
18/06/2012 Show to everybody 20120618_0934 51.06 1130 03:41:19 13.84 Km\h
16/06/2012 Show to everybody 20120616_0918 30.83 701 02:06:30 14.62 Km\h
15/06/2012 Show to everybody 20120615_1020 34.2 890 02:33:33 13.36 Km\h
14/06/2012 Show to everybody 20120614_1224 28.51 906 02:23:19 11.93 Km\h
13/06/2012 Show to everybody 20120613_0920 39.42 869 02:39:26 14.84 Km\h
12/06/2012 Show to everybody 20120612_1001 48.33 1003 03:11:53 15.11 Km\h
11/06/2012 Show to everybody allenamento 11.06.2012 36.11 1007 02:08:21 16.88 Km\h
10/06/2012 Show to everybody allenamento 10.06-2012 25.31 778 01:50:56 13.69 Km\h
05/06/2012 Show to everybody allenamento 05.06.2012 43.79 1349 04:11:33 10.44 Km\h
02/06/2012 Show to everybody Allenamento 02.06.2012 29.62 871 02:13:13 13.34 Km\h
01/06/2012 Show to everybody Allenamento 01.06.2012 14.13 418 01:24:09 10.07 Km\h
Training units 0
Kilometers 0 Km
Vertical gain 0 mt
Hours of riding 00:00:00
Average speed 0 Km/h
average HR 120
Points 27
Live Tracking »

Pina 02:17:42 51.4 Km
Trailfox 03:30:32 35.49 Km

 
If you stop following this users you will not be able to compare your trainings with his

Now you follow this users and you can compare your trainings


MTB-Forum.it | 2012-2019 Training Camp v.1.6 rev 05